Taos Pueblo, New Mexico
Current Conditions -  °F | °C
As of 2:15 PM on Thursday 20 Nov 2014 (Local Time) from KSKX Reporting Station
Overcast Overcast  
Wind Chill:   Ceiling: 12000
Heat Index:   Visibility: 10mi
Dew Point: -11°   Wind: 0mph
Humidity: 27%   Direction: NA
Pressure: 30.06"   Gusts: NA
Location:  36.4227°N, 105.509°W
Report Text: KSKX 202115Z AUTO 00000KT 10SM OVC120 07/M11 A3006 RMK AO1
Loading
Personal Weather Stations






























Interactive Weather Map New forecast layout! Learn more

10-Day Weather Forecast

Advertisements
Track Severe Weather on mobile